createdAt,value
2019-01-30T00:00:04.560Z,13.30
2019-01-30T00:02:32.537Z,15.97
2019-01-30T00:05:00.506Z,18.80
2019-01-30T00:07:28.195Z,15.23
2019-01-30T00:09:56.135Z,22.73
2019-01-30T00:12:24.102Z,18.20
2019-01-30T00:14:52.076Z,19.30
2019-01-30T00:17:20.040Z,20.73
2019-01-30T00:19:48.012Z,17.03
2019-01-30T00:22:15.979Z,21.60
2019-01-30T00:24:43.949Z,28.77
2019-01-30T00:27:11.918Z,23.03
2019-01-30T00:29:39.897Z,14.63
2019-01-30T00:32:07.505Z,19.40
2019-01-30T00:34:35.137Z,15.67
2019-01-30T00:37:03.081Z,14.80
2019-01-30T00:39:31.049Z,20.37
2019-01-30T00:41:58.670Z,24.40
2019-01-30T00:44:26.583Z,20.07
2019-01-30T00:46:54.203Z,23.47
2019-01-30T00:49:22.110Z,19.80
2019-01-30T00:51:50.081Z,17.30
2019-01-30T00:54:17.711Z,17.57
2019-01-30T00:56:45.339Z,16.70
2019-01-30T00:59:13.276Z,19.07
2019-01-30T01:01:41.259Z,18.87
2019-01-30T01:04:08.887Z,17.93
2019-01-30T01:06:36.522Z,12.87
2019-01-30T01:09:06.075Z,19.27
2019-01-30T01:11:34.042Z,18.20
2019-01-30T01:14:02.008Z,18.47
2019-01-30T01:16:29.880Z,17.77
2019-01-30T01:18:57.505Z,16.37
2019-01-30T01:21:25.406Z,19.13
2019-01-30T01:23:53.115Z,15.50
2019-01-30T01:26:21.063Z,20.00
2019-01-30T01:28:49.008Z,15.03
2019-01-30T01:31:16.872Z,16.37
2019-01-30T01:33:44.853Z,16.47
2019-01-30T01:36:12.817Z,19.37
2019-01-30T01:38:40.451Z,23.63
2019-01-30T01:41:08.077Z,18.43
2019-01-30T01:43:35.710Z,16.90
2019-01-30T01:46:03.346Z,15.60
2019-01-30T01:48:31.232Z,19.93
2019-01-30T01:50:59.220Z,19.80
2019-01-30T01:53:27.174Z,19.23
2019-01-30T01:55:55.137Z,21.40
2019-01-30T01:58:23.111Z,17.13
2019-01-30T02:00:51.084Z,21.13
2019-01-30T02:03:19.053Z,17.47
2019-01-30T02:05:46.688Z,21.47
2019-01-30T02:08:14.578Z,20.10
2019-01-30T02:10:42.550Z,20.47
2019-01-30T02:13:10.536Z,18.27
2019-01-30T02:15:38.168Z,17.10
2019-01-30T02:18:08.476Z,23.27
2019-01-30T02:20:35.656Z,18.97
2019-01-30T02:23:03.625Z,15.90
2019-01-30T02:25:31.615Z,15.47
2019-01-30T02:28:00.876Z,16.10
2019-01-30T02:30:28.701Z,16.20
2019-01-30T02:32:56.756Z,15.97
2019-01-30T02:35:24.380Z,14.30
2019-01-30T02:37:51.998Z,15.70
2019-01-30T02:40:19.919Z,13.13
2019-01-30T02:42:47.903Z,17.03
2019-01-30T02:45:15.528Z,14.23
2019-01-30T02:47:43.422Z,17.27
2019-01-30T02:50:11.040Z,14.03
2019-01-30T02:52:38.959Z,13.43
2019-01-30T02:55:06.896Z,17.70
2019-01-30T02:57:34.792Z,12.73
2019-01-30T03:00:02.418Z,12.43
2019-01-30T03:02:30.326Z,19.20
2019-01-30T03:04:58.296Z,10.87
2019-01-30T03:07:26.265Z,12.70
2019-01-30T03:09:53.883Z,17.40
2019-01-30T03:12:21.786Z,13.20
2019-01-30T03:14:49.778Z,14.80
2019-01-30T03:17:17.398Z,15.30
2019-01-30T03:19:45.287Z,11.40
2019-01-30T03:22:13.260Z,11.23
2019-01-30T03:24:41.247Z,13.07
2019-01-30T03:27:08.867Z,13.67
2019-01-30T03:29:36.490Z,11.57
2019-01-30T03:32:04.426Z,12.57
2019-01-30T03:34:32.039Z,12.77
2019-01-30T03:36:59.956Z,13.53
2019-01-30T03:39:27.919Z,13.33
2019-01-30T03:41:55.892Z,13.67
2019-01-30T03:44:23.770Z,10.27
2019-01-30T03:46:51.729Z,13.27
2019-01-30T03:49:19.699Z,14.47
2019-01-30T03:51:47.326Z,12.73
2019-01-30T03:54:14.960Z,12.80
2019-01-30T03:56:42.887Z,10.97
2019-01-30T03:59:10.506Z,15.20
2019-01-30T04:01:38.418Z,14.13
2019-01-30T04:04:06.046Z,13.93
2019-01-30T04:06:33.948Z,10.93
2019-01-30T04:09:01.922Z,10.87
2019-01-30T04:11:29.884Z,9.73
2019-01-30T04:14:00.586Z,11.10
2019-01-30T04:16:27.177Z,12.03
2019-01-30T04:18:55.130Z,10.53
2019-01-30T04:21:22.763Z,12.60
2019-01-30T04:23:50.377Z,10.13
2019-01-30T04:26:18.322Z,15.07
2019-01-30T04:28:45.953Z,12.27
2019-01-30T04:31:13.839Z,14.80
2019-01-30T04:33:41.710Z,13.20
2019-01-30T04:36:09.683Z,15.70
2019-01-30T04:38:37.296Z,15.13
2019-01-30T04:41:05.234Z,13.63
2019-01-30T04:43:32.860Z,12.23
2019-01-30T04:46:00.843Z,13.57
2019-01-30T04:48:28.816Z,13.87
2019-01-30T04:50:56.786Z,11.80
2019-01-30T04:53:24.754Z,12.27
2019-01-30T04:55:52.765Z,14.53
2019-01-30T04:58:20.357Z,12.40
2019-01-30T05:00:48.258Z,14.00
2019-01-30T05:03:16.226Z,12.30
2019-01-30T05:05:44.219Z,14.20
2019-01-30T05:08:11.836Z,12.50
2019-01-30T05:10:39.823Z,15.03
2019-01-30T05:13:07.796Z,10.63
2019-01-30T05:15:35.763Z,13.90
2019-01-30T05:18:03.399Z,11.23
2019-01-30T05:20:31.007Z,10.50
2019-01-30T05:22:58.953Z,13.20
2019-01-30T05:25:26.936Z,13.43
2019-01-30T05:27:54.897Z,14.03
2019-01-30T05:30:22.527Z,10.50
2019-01-30T05:32:50.155Z,13.17
2019-01-30T05:35:17.841Z,13.93
2019-01-30T05:37:45.758Z,17.17
2019-01-30T05:40:13.362Z,12.63
2019-01-30T05:42:41.277Z,11.37
2019-01-30T05:45:08.893Z,12.60
2019-01-30T05:47:36.815Z,13.73
2019-01-30T05:50:04.781Z,10.00
2019-01-30T05:52:32.745Z,10.30
2019-01-30T05:55:00.366Z,15.70
2019-01-30T05:57:27.999Z,13.23
2019-01-30T05:59:55.935Z,12.37
2019-01-30T06:02:23.912Z,12.10
2019-01-30T06:04:51.534Z,14.53
2019-01-30T06:07:19.441Z,11.77
2019-01-30T06:09:47.410Z,10.77
2019-01-30T06:12:15.032Z,14.57
2019-01-30T06:14:42.938Z,12.60
2019-01-30T06:17:11.033Z,14.73
2019-01-30T06:19:38.601Z,11.27
2019-01-30T06:22:06.535Z,11.97
2019-01-30T06:24:34.164Z,13.43
2019-01-30T06:27:01.789Z,13.87
2019-01-30T06:29:29.729Z,14.03
2019-01-30T06:31:57.351Z,23.07
2019-01-30T06:34:24.987Z,9.57
2019-01-30T06:36:52.925Z,13.47
2019-01-30T06:39:20.892Z,13.20
2019-01-30T06:41:48.867Z,14.03
2019-01-30T06:44:16.829Z,19.53
2019-01-30T06:46:44.805Z,12.77
2019-01-30T06:49:12.677Z,10.73
2019-01-30T06:51:40.641Z,15.80
2019-01-30T06:54:08.506Z,12.70
2019-01-30T06:56:36.477Z,20.07
2019-01-30T06:59:04.448Z,15.27
2019-01-30T07:01:32.486Z,17.20
2019-01-30T07:04:00.393Z,12.93
2019-01-30T07:06:28.373Z,11.30
2019-01-30T07:08:55.987Z,9.90
2019-01-30T07:11:23.689Z,9.60
2019-01-30T07:13:51.654Z,12.17
2019-01-30T07:16:19.621Z,8.93
2019-01-30T07:18:47.249Z,12.90
2019-01-30T07:21:14.859Z,10.77
2019-01-30T07:23:42.486Z,10.80
2019-01-30T07:26:10.370Z,10.93
2019-01-30T07:28:38.337Z,9.17
2019-01-30T07:31:06.206Z,10.50
2019-01-30T07:33:34.179Z,9.60
2019-01-30T07:36:01.812Z,11.27
2019-01-30T07:38:29.440Z,8.47
2019-01-30T07:40:58.387Z,8.97
2019-01-30T07:43:26.362Z,12.47
2019-01-30T07:45:53.977Z,13.63
2019-01-30T07:48:21.895Z,7.73
2019-01-30T07:50:49.501Z,14.77
2019-01-30T07:53:17.417Z,8.23
2019-01-30T07:55:45.041Z,10.87
2019-01-30T07:58:12.958Z,8.43
2019-01-30T08:00:40.921Z,8.40
2019-01-30T08:03:08.544Z,7.87
2019-01-30T08:05:36.467Z,10.70
2019-01-30T08:08:04.400Z,10.93
2019-01-30T08:10:32.289Z,10.17
2019-01-30T08:13:00.263Z,16.40
2019-01-30T08:15:28.233Z,11.43
2019-01-30T08:17:55.867Z,14.03
2019-01-30T08:20:23.758Z,11.60
2019-01-30T08:22:51.539Z,10.07
2019-01-30T08:25:19.931Z,13.63
2019-01-30T08:27:47.890Z,8.07
2019-01-30T08:30:22.284Z,11.47
2019-01-30T08:32:45.461Z,7.97
2019-01-30T08:35:13.159Z,9.90
2019-01-30T08:37:41.081Z,8.23
2019-01-30T08:40:09.046Z,10.23
2019-01-30T08:42:36.702Z,10.80
2019-01-30T08:45:04.327Z,8.30
2019-01-30T08:47:31.951Z,10.33
2019-01-30T08:49:59.903Z,16.53
2019-01-30T08:52:27.879Z,10.20
2019-01-30T08:54:55.839Z,7.13
2019-01-30T08:57:23.469Z,8.77
2019-01-30T08:59:51.370Z,8.77
2019-01-30T09:02:21.062Z,7.70
2019-01-30T09:04:48.300Z,8.93
2019-01-30T09:07:16.203Z,8.80
2019-01-30T09:09:44.086Z,10.00
2019-01-30T09:12:12.036Z,8.53
2019-01-30T09:14:39.924Z,9.97
2019-01-30T09:17:08.728Z,9.50
2019-01-30T09:19:36.425Z,7.83
2019-01-30T09:22:04.042Z,12.60
2019-01-30T09:24:31.658Z,6.47
2019-01-30T09:26:59.546Z,8.00
2019-01-30T09:29:27.528Z,8.37
2019-01-30T09:31:55.140Z,6.50
2019-01-30T09:34:23.072Z,7.43
2019-01-30T09:36:51.017Z,6.70
2019-01-30T09:39:19.003Z,6.57
2019-01-30T09:41:46.956Z,7.77
2019-01-30T09:44:14.936Z,11.53
2019-01-30T09:46:42.556Z,9.23
2019-01-30T09:49:10.189Z,10.67
2019-01-30T09:51:38.191Z,6.50
2019-01-30T09:54:05.829Z,9.67
2019-01-30T09:56:33.507Z,9.43
2019-01-30T09:59:01.080Z,6.47
2019-01-30T10:01:28.972Z,6.53
2019-01-30T10:03:56.597Z,8.73
2019-01-30T10:06:24.213Z,7.17
2019-01-30T10:08:52.166Z,8.30
2019-01-30T10:11:20.134Z,7.97
2019-01-30T10:13:48.104Z,7.23
2019-01-30T10:16:15.971Z,8.97
2019-01-30T10:18:43.597Z,10.43
2019-01-30T10:21:11.213Z,6.80
2019-01-30T10:23:38.833Z,7.13
2019-01-30T10:26:06.447Z,6.37
2019-01-30T10:28:34.384Z,7.63
2019-01-30T10:31:02.251Z,6.57
2019-01-30T10:33:30.224Z,6.40
2019-01-30T10:35:57.851Z,8.73
2019-01-30T10:38:25.533Z,9.17
2019-01-30T10:40:53.159Z,9.60
2019-01-30T10:43:20.787Z,9.00
2019-01-30T10:45:48.398Z,6.47
2019-01-30T10:48:16.302Z,5.23
2019-01-30T10:50:43.909Z,9.60
2019-01-30T10:53:11.828Z,8.03
2019-01-30T10:55:39.448Z,7.37
2019-01-30T10:58:07.353Z,8.60
2019-01-30T11:00:35.043Z,7.57
2019-01-30T11:03:02.993Z,9.03
2019-01-30T11:05:30.609Z,9.13
2019-01-30T11:07:58.533Z,6.83
2019-01-30T11:10:26.493Z,9.30
2019-01-30T11:12:54.118Z,10.30
2019-01-30T11:15:21.741Z,5.33
2019-01-30T11:17:49.366Z,9.17
2019-01-30T11:20:16.997Z,7.47
2019-01-30T11:22:44.904Z,8.67
2019-01-30T11:25:12.876Z,7.27
2019-01-30T11:27:40.844Z,8.47
2019-01-30T11:30:08.811Z,8.60
2019-01-30T11:32:36.692Z,6.57
2019-01-30T11:35:04.647Z,7.13
2019-01-30T11:37:32.336Z,6.40
2019-01-30T11:40:00.284Z,8.57
2019-01-30T11:42:28.252Z,8.80
2019-01-30T11:44:56.213Z,6.73
2019-01-30T11:47:24.089Z,7.40
2019-01-30T11:49:52.079Z,7.87
2019-01-30T11:52:20.029Z,6.77
2019-01-30T11:54:47.997Z,11.03
2019-01-30T11:57:15.884Z,8.10
2019-01-30T11:59:43.840Z,8.07
2019-01-30T12:02:11.699Z,6.10
2019-01-30T12:04:39.667Z,7.30
2019-01-30T12:07:07.298Z,10.97
2019-01-30T12:09:34.917Z,9.57
2019-01-30T12:12:02.862Z,9.87
2019-01-30T12:14:30.830Z,7.50
2019-01-30T12:16:58.700Z,7.37
2019-01-30T12:19:26.668Z,6.63
2019-01-30T12:21:54.545Z,8.73
2019-01-30T12:24:22.504Z,8.07
2019-01-30T12:26:50.122Z,6.63
2019-01-30T12:29:18.036Z,7.40
2019-01-30T12:31:45.899Z,6.50
2019-01-30T12:34:13.872Z,9.70
2019-01-30T12:36:41.848Z,7.87
2019-01-30T12:39:10.019Z,7.67
2019-01-30T12:41:37.639Z,9.80
2019-01-30T12:44:05.624Z,7.23
2019-01-30T12:46:33.513Z,8.73
2019-01-30T12:49:01.158Z,8.63
2019-01-30T12:51:29.046Z,8.10
2019-01-30T12:53:57.024Z,10.07
2019-01-30T12:56:24.633Z,7.47
2019-01-30T12:58:52.544Z,8.77
2019-01-30T13:01:20.532Z,9.73
2019-01-30T13:03:48.154Z,8.20
2019-01-30T13:06:15.780Z,9.90
2019-01-30T13:08:43.399Z,8.60
2019-01-30T13:11:11.369Z,7.27
2019-01-30T13:13:38.980Z,7.30
2019-01-30T13:16:06.897Z,9.77
2019-01-30T13:18:34.871Z,6.97
2019-01-30T13:21:02.836Z,8.47
2019-01-30T13:23:30.453Z,8.10
2019-01-30T13:25:58.376Z,8.93
2019-01-30T13:28:25.978Z,8.23
2019-01-30T13:30:53.618Z,6.97
2019-01-30T13:33:21.563Z,7.97
2019-01-30T13:35:49.188Z,7.60
2019-01-30T13:38:16.803Z,6.77
2019-01-30T13:40:44.753Z,8.27
2019-01-30T13:43:12.360Z,7.03
2019-01-30T13:45:40.292Z,7.97
2019-01-30T13:48:08.279Z,7.87
2019-01-30T13:50:35.962Z,8.20
2019-01-30T13:53:04.014Z,10.33
2019-01-30T13:55:31.885Z,12.07
2019-01-30T13:58:02.058Z,10.03
2019-01-30T14:00:29.122Z,9.73
2019-01-30T14:02:57.113Z,11.40
2019-01-30T14:05:25.087Z,11.43
2019-01-30T14:07:52.960Z,12.90
2019-01-30T14:10:20.897Z,8.70
2019-01-30T14:12:48.793Z,10.40
2019-01-30T14:15:16.415Z,9.57
2019-01-30T14:17:44.009Z,14.47
2019-01-30T14:20:11.647Z,11.40
2019-01-30T14:22:39.266Z,15.03
2019-01-30T14:25:07.217Z,11.43
2019-01-30T14:27:35.167Z,18.70
2019-01-30T14:30:02.797Z,13.97
2019-01-30T14:32:30.411Z,11.47
2019-01-30T14:34:58.096Z,12.03
2019-01-30T14:37:26.014Z,12.73
2019-01-30T14:39:53.650Z,12.00
2019-01-30T14:42:21.568Z,12.30
2019-01-30T14:44:49.204Z,12.93
2019-01-30T14:47:17.092Z,12.63
2019-01-30T14:49:45.031Z,14.77
2019-01-30T14:52:12.652Z,11.47
2019-01-30T14:54:40.342Z,15.40
2019-01-30T14:57:07.966Z,12.40
2019-01-30T14:59:35.574Z,12.90
2019-01-30T15:02:03.209Z,14.33
2019-01-30T15:04:30.820Z,12.90
2019-01-30T15:06:58.787Z,14.87
2019-01-30T15:09:26.397Z,18.27
2019-01-30T15:11:54.047Z,14.50
2019-01-30T15:14:21.973Z,11.70
2019-01-30T15:16:49.952Z,15.50
2019-01-30T15:19:17.801Z,16.40
2019-01-30T15:21:45.471Z,12.53
2019-01-30T15:24:13.336Z,14.17
2019-01-30T15:26:41.300Z,12.43
2019-01-30T15:29:09.269Z,16.50
2019-01-30T15:31:37.238Z,14.97
2019-01-30T15:34:05.218Z,12.33
2019-01-30T15:36:32.834Z,14.33
2019-01-30T15:39:00.737Z,13.80
2019-01-30T15:41:28.390Z,16.10
2019-01-30T15:43:56.270Z,12.63
2019-01-30T15:46:24.240Z,13.93
2019-01-30T15:48:51.894Z,12.60
2019-01-30T15:51:19.523Z,17.03
2019-01-30T15:53:47.434Z,15.60
2019-01-30T15:56:15.394Z,11.93
2019-01-30T15:58:43.268Z,15.37
2019-01-30T16:01:11.236Z,14.90
2019-01-30T16:03:38.867Z,15.97
2019-01-30T16:06:06.764Z,17.93
2019-01-30T16:08:34.380Z,13.80
2019-01-30T16:11:02.300Z,17.07
2019-01-30T16:13:30.160Z,17.03
2019-01-30T16:15:58.140Z,14.97
2019-01-30T16:18:26.108Z,18.97
2019-01-30T16:20:54.076Z,12.83
2019-01-30T16:23:21.709Z,15.23
2019-01-30T16:25:49.327Z,15.87
2019-01-30T16:28:17.264Z,17.97
2019-01-30T16:30:44.887Z,18.00
2019-01-30T16:33:12.499Z,17.00
2019-01-30T16:35:40.461Z,17.20
2019-01-30T16:38:08.424Z,15.67
2019-01-30T16:40:36.040Z,16.30
2019-01-30T16:43:03.956Z,16.20
2019-01-30T16:45:31.589Z,14.47
2019-01-30T16:47:59.207Z,13.47
2019-01-30T16:50:27.258Z,14.37
2019-01-30T16:52:54.877Z,14.17
2019-01-30T16:55:22.773Z,16.00
2019-01-30T16:57:50.756Z,16.13
2019-01-30T17:00:18.393Z,12.20
2019-01-30T17:02:46.595Z,13.87
2019-01-30T17:05:14.594Z,16.87
2019-01-30T17:07:42.220Z,13.03
2019-01-30T17:10:10.205Z,15.40
2019-01-30T17:12:38.158Z,15.90
2019-01-30T17:15:06.136Z,16.87
2019-01-30T17:17:34.209Z,17.50
2019-01-30T17:20:02.186Z,16.30
2019-01-30T17:22:30.143Z,14.03
2019-01-30T17:24:57.779Z,19.07
2019-01-30T17:27:25.807Z,16.30
2019-01-30T17:29:53.915Z,18.23
2019-01-30T17:32:21.646Z,16.10
2019-01-30T17:34:51.911Z,19.33
2019-01-30T17:37:19.187Z,14.37
2019-01-30T17:39:47.159Z,17.83
2019-01-30T17:42:14.795Z,17.13
2019-01-30T17:44:42.689Z,19.20
2019-01-30T17:47:10.658Z,15.47
2019-01-30T17:49:38.288Z,17.03
2019-01-30T17:52:06.298Z,19.43
2019-01-30T17:54:34.370Z,16.57
2019-01-30T17:57:02.538Z,15.90
2019-01-30T17:59:30.506Z,15.63
2019-01-30T18:01:58.489Z,17.13
2019-01-30T18:04:26.442Z,15.67
2019-01-30T18:06:54.089Z,16.87
2019-01-30T18:09:22.190Z,19.50
2019-01-30T18:11:49.840Z,19.13
2019-01-30T18:14:17.818Z,17.00
2019-01-30T18:16:45.778Z,17.33
2019-01-30T18:19:13.760Z,15.40
2019-01-30T18:21:41.722Z,16.60
2019-01-30T18:24:09.371Z,17.20
2019-01-30T18:26:38.006Z,14.93
2019-01-30T18:29:06.034Z,17.80
2019-01-30T18:31:33.675Z,14.93
2019-01-30T18:34:01.570Z,17.50
2019-01-30T18:36:40.357Z,19.53
2019-01-30T18:38:58.841Z,17.00
2019-01-30T18:41:26.495Z,18.30
2019-01-30T18:43:54.480Z,18.30
2019-01-30T18:46:22.444Z,16.00
2019-01-30T18:48:50.076Z,16.03
2019-01-30T18:51:17.713Z,18.87
2019-01-30T18:53:45.360Z,19.73
2019-01-30T18:56:13.449Z,22.93
2019-01-30T18:58:41.366Z,17.63
2019-01-30T19:01:09.439Z,17.57
2019-01-30T19:03:37.078Z,17.20
2019-01-30T19:06:04.720Z,18.97
2019-01-30T19:08:32.376Z,18.53
2019-01-30T19:11:00.311Z,17.70
2019-01-30T19:13:28.273Z,21.17
2019-01-30T19:15:56.237Z,17.00
2019-01-30T19:18:24.203Z,19.73
2019-01-30T19:20:52.172Z,20.23
2019-01-30T19:23:20.140Z,17.80
2019-01-30T19:25:48.221Z,21.77
2019-01-30T19:28:16.516Z,20.73
2019-01-30T19:30:45.203Z,16.97
2019-01-30T19:33:13.258Z,20.40
2019-01-30T19:35:41.231Z,18.80
2019-01-30T19:38:09.193Z,20.13
2019-01-30T19:40:37.156Z,21.87
2019-01-30T19:43:04.800Z,24.33
2019-01-30T19:45:32.431Z,20.60
2019-01-30T19:48:00.363Z,20.13
2019-01-30T19:50:28.425Z,21.53
2019-01-30T19:52:56.390Z,24.67
2019-01-30T19:55:24.010Z,24.53
2019-01-30T19:57:51.653Z,20.73
2019-01-30T20:00:19.343Z,21.27
2019-01-30T20:02:47.241Z,21.90
2019-01-30T20:05:15.215Z,26.23
2019-01-30T20:07:42.847Z,29.17
2019-01-30T20:10:10.848Z,22.17
2019-01-30T20:12:38.478Z,23.60
2019-01-30T20:15:06.101Z,23.57
2019-01-30T20:17:33.801Z,25.73
2019-01-30T20:20:01.501Z,22.73
2019-01-30T20:22:29.463Z,24.80
2019-01-30T20:24:57.095Z,22.43
2019-01-30T20:27:24.720Z,21.27
2019-01-30T20:29:52.761Z,25.27
2019-01-30T20:32:20.732Z,27.10
2019-01-30T20:34:48.696Z,23.67
2019-01-30T20:37:25.897Z,23.60
2019-01-30T20:39:46.377Z,24.30
2019-01-30T20:42:14.003Z,23.30
2019-01-30T20:44:41.634Z,23.30
2019-01-30T20:47:09.606Z,21.47
2019-01-30T20:49:37.591Z,26.67
2019-01-30T20:52:05.234Z,24.83
2019-01-30T20:54:33.194Z,23.90
2019-01-30T20:57:00.902Z,24.23
2019-01-30T20:59:28.808Z,21.93
2019-01-30T21:01:56.777Z,22.57
2019-01-30T21:04:24.416Z,25.03
2019-01-30T21:06:52.401Z,24.97
2019-01-30T21:09:20.376Z,24.33
2019-01-30T21:11:48.344Z,25.10
2019-01-30T21:14:16.318Z,25.07
2019-01-30T21:16:43.952Z,26.73
2019-01-30T21:19:11.659Z,23.40
2019-01-30T21:21:39.306Z,22.63
2019-01-30T21:24:07.298Z,25.47
2019-01-30T21:26:35.348Z,20.33
2019-01-30T21:29:03.420Z,25.73
2019-01-30T21:31:31.385Z,25.07
2019-01-30T21:33:59.023Z,20.43
2019-01-30T21:36:27.044Z,24.67
2019-01-30T21:38:54.987Z,27.60
2019-01-30T21:41:22.617Z,27.20
2019-01-30T21:43:50.518Z,25.90
2019-01-30T21:46:18.487Z,26.37
2019-01-30T21:48:46.132Z,27.53
2019-01-30T21:51:14.026Z,24.93
2019-01-30T21:53:41.985Z,23.40
2019-01-30T21:56:10.049Z,24.80
2019-01-30T21:58:38.035Z,23.17
2019-01-30T22:01:05.851Z,20.73
2019-01-30T22:03:33.864Z,26.30
2019-01-30T22:06:01.510Z,25.50
2019-01-30T22:08:29.602Z,22.53
2019-01-30T22:10:57.233Z,23.17
2019-01-30T22:13:24.884Z,25.13
2019-01-30T22:15:52.524Z,23.27
2019-01-30T22:18:20.452Z,24.47
2019-01-30T22:20:48.424Z,24.83
2019-01-30T22:23:16.398Z,24.07
2019-01-30T22:25:44.364Z,28.03
2019-01-30T22:28:11.997Z,24.00
2019-01-30T22:30:39.651Z,23.43
2019-01-30T22:33:07.562Z,24.30
2019-01-30T22:35:35.238Z,27.40
2019-01-30T22:38:11.987Z,25.00
2019-01-30T22:40:32.902Z,24.97
2019-01-30T22:43:00.869Z,25.73
2019-01-30T22:45:28.839Z,25.13
2019-01-30T22:47:56.466Z,27.53
2019-01-30T22:50:24.470Z,26.70
2019-01-30T22:52:52.126Z,23.93
2019-01-30T22:55:19.816Z,26.67
2019-01-30T22:57:50.740Z,24.90
2019-01-30T23:00:17.479Z,24.17
2019-01-30T23:02:45.447Z,28.20
2019-01-30T23:05:13.096Z,25.00
2019-01-30T23:07:41.218Z,28.53
2019-01-30T23:10:09.157Z,29.50
2019-01-30T23:12:37.122Z,25.30
2019-01-30T23:15:05.090Z,28.60
2019-01-30T23:17:32.745Z,25.90
2019-01-30T23:20:00.715Z,31.77
2019-01-30T23:22:28.356Z,31.33
2019-01-30T23:24:56.359Z,30.93
2019-01-30T23:27:24.319Z,31.07
2019-01-30T23:29:52.288Z,28.20
2019-01-30T23:32:20.267Z,30.57
2019-01-30T23:34:48.305Z,28.33
2019-01-30T23:37:16.296Z,30.60
2019-01-30T23:39:44.273Z,27.57
2019-01-30T23:42:12.238Z,29.00
2019-01-30T23:44:39.894Z,29.43
2019-01-30T23:47:07.972Z,28.27
2019-01-30T23:49:35.946Z,30.07
2019-01-30T23:52:03.589Z,27.20
2019-01-30T23:54:31.238Z,31.90
2019-01-30T23:56:59.267Z,26.17
2019-01-30T23:59:27.213Z,30.30
